Time;durP1;ratioP1;P1;durP2;ratioP2;P2;SDS_P1;SDS_P2;PMS_P1;PMS_P2;Temp;Humidity;BMP_temperature;BMP_pressure;BME280_temperature;BME280_humidity;BME280_pressure;Samples;Min_cycle;Max_cycle;Signal;HPM_P1;HPM_P2
2023/01/19 00:01:51;;;;;;;0.70;0.40;;;;;;;;;;5092560;28;20059;-64
2023/01/19 00:04:21;;;;;;;1.35;0.47;;;;;;;;;;5110396;28;20040;-64
2023/01/19 00:06:51;;;;;;;1.27;0.65;;;;;;;;;;5042095;28;20052;-66
2023/01/19 00:09:22;;;;;;;0.68;0.40;;;;;;;;;;5111294;28;20066;-65
2023/01/19 00:11:52;;;;;;;2.25;0.47;;;;;;;;;;5088395;28;20052;-64
2023/01/19 00:14:23;;;;;;;1.45;0.38;;;;;;;;;;5054508;28;20407;-64
2023/01/19 00:16:53;;;;;;;1.40;0.20;;;;;;;;;;5088631;28;20052;-64
2023/01/19 00:19:23;;;;;;;1.95;0.43;;;;;;;;;;5088529;28;20586;-64
2023/01/19 00:21:53;;;;;;;2.90;0.50;;;;;;;;;;5067997;28;20063;-65
2023/01/19 00:24:23;;;;;;;0.90;0.30;;;;;;;;;;5067976;28;20075;-65
2023/01/19 00:26:53;;;;;;;0.85;0.30;;;;;;;;;;5068384;28;20056;-64
2023/01/19 00:29:24;;;;;;;2.55;0.32;;;;;;;;;;5047562;28;20052;-64
2023/01/19 00:31:54;;;;;;;1.88;0.47;;;;;;;;;;5015123;28;20416;-65
2023/01/19 00:34:24;;;;;;;2.42;0.45;;;;;;;;;;5048039;28;20053;-64
2023/01/19 00:36:54;;;;;;;0.50;0.30;;;;;;;;;;5047657;28;20057;-64
2023/01/19 00:39:24;;;;;;;2.78;0.45;;;;;;;;;;5047683;28;20056;-64
2023/01/19 00:44:42;;;;;;;1.85;0.32;;;;;;;;;;5047927;28;20456;-64
2023/01/19 00:47:12;;;;;;;1.77;0.60;;;;;;;;;;5014801;28;20160;-64
2023/01/19 00:49:42;;;;;;;1.85;0.47;;;;;;;;;;5047746;28;20057;-64
2023/01/19 00:52:12;;;;;;;0.77;0.30;;;;;;;;;;5047669;28;20052;-64
2023/01/19 00:54:42;;;;;;;3.15;0.40;;;;;;;;;;5047814;28;20069;-64
2023/01/19 00:57:13;;;;;;;3.05;0.60;;;;;;;;;;5047933;28;20053;-64
2023/01/19 00:59:44;;;;;;;0.52;0.40;;;;;;;;;;5026015;28;20049;-64
2023/01/19 01:02:15;;;;;;;1.73;0.40;;;;;;;;;;5068009;28;20045;-64
2023/01/19 01:04:45;;;;;;;3.67;0.47;;;;;;;;;;5034438;28;20064;-65
2023/01/19 01:07:15;;;;;;;6.15;0.73;;;;;;;;;;5046131;28;20052;-65
2023/01/19 01:09:45;;;;;;;0.73;0.30;;;;;;;;;;5054649;28;20063;-65
2023/01/19 01:12:15;;;;;;;1.25;0.40;;;;;;;;;;5070889;28;20059;-64
2023/01/19 01:14:45;;;;;;;1.55;1.00;;;;;;;;;;5089064;28;20582;-65
2023/01/19 01:17:16;;;;;;;1.17;0.40;;;;;;;;;;5004024;28;20517;-65
2023/01/19 01:19:46;;;;;;;1.48;0.38;;;;;;;;;;5114540;28;20044;-64
2023/01/19 01:22:16;;;;;;;0.85;0.30;;;;;;;;;;5061348;28;20051;-64
2023/01/19 01:24:46;;;;;;;1.35;0.47;;;;;;;;;;5050628;28;20049;-65
2023/01/19 01:27:16;;;;;;;5.07;0.95;;;;;;;;;;5051213;28;20072;-65
2023/01/19 01:29:47;;;;;;;1.00;0.40;;;;;;;;;;5050913;28;20048;-65
2023/01/19 01:32:17;;;;;;;0.82;0.40;;;;;;;;;;5011211;28;20046;-64
2023/01/19 01:34:47;;;;;;;4.32;0.47;;;;;;;;;;5014755;28;20054;-64
2023/01/19 01:37:17;;;;;;;4.20;1.17;;;;;;;;;;5014630;28;20057;-65
2023/01/19 01:39:47;;;;;;;0.60;0.30;;;;;;;;;;4981530;28;20049;-64
2023/01/19 01:42:19;;;;;;;2.10;0.40;;;;;;;;;;4998102;28;20049;-65
2023/01/19 01:45:01;;;;;;;1.63;0.50;;;;;;;;;;5030896;28;20072;-64
2023/01/19 01:47:38;;;;;;;1.40;0.40;;;;;;;;;;5030862;28;20060;-65
2023/01/19 01:50:21;;;;;;;2.25;0.35;;;;;;;;;;5030887;28;20060;-65
2023/01/19 01:53:06;;;;;;;2.25;0.40;;;;;;;;;;5014788;28;20088;-65
2023/01/19 01:55:43;;;;;;;0.52;0.32;;;;;;;;;;5030612;28;20380;-65
2023/01/19 01:58:15;;;;;;;2.78;0.43;;;;;;;;;;5030786;28;20085;-65
2023/01/19 02:03:35;;;;;;;2.00;0.80;;;;;;;;;;5009819;28;20080;-65
2023/01/19 02:06:08;;;;;;;3.25;0.40;;;;;;;;;;5010923;28;20398;-65
2023/01/19 02:14:38;;;;;;;1.42;0.82;;;;;;;;;;5001263;28;20711;-65
2023/01/19 02:17:08;;;;;;;2.95;0.60;;;;;;;;;;5049788;28;20067;-65
2023/01/19 02:19:43;;;;;;;2.42;0.52;;;;;;;;;;5050552;28;20440;-65
2023/01/19 02:22:39;;;;;;;3.25;0.70;;;;;;;;;;5001893;28;20060;-65
2023/01/19 02:25:10;;;;;;;5.03;0.80;;;;;;;;;;5050074;28;20053;-64
2023/01/19 02:27:41;;;;;;;1.52;0.60;;;;;;;;;;5049149;28;20560;-65
2023/01/19 02:30:12;;;;;;;1.50;0.40;;;;;;;;;;5050032;28;20072;-65
2023/01/19 02:32:43;;;;;;;2.13;0.40;;;;;;;;;;5050054;28;20045;-65
2023/01/19 02:35:13;;;;;;;1.13;0.32;;;;;;;;;;5016600;28;20056;-65
2023/01/19 02:37:44;;;;;;;0.88;0.40;;;;;;;;;;5064974;28;20063;-66
2023/01/19 02:40:23;;;;;;;3.45;0.57;;;;;;;;;;5113181;28;20043;-65
2023/01/19 02:42:59;;;;;;;0.88;0.50;;;;;;;;;;5112973;28;20048;-65
2023/01/19 02:45:30;;;;;;;2.80;0.93;;;;;;;;;;5112854;28;20039;-65
2023/01/19 02:48:00;;;;;;;4.55;0.63;;;;;;;;;;5076552;28;20063;-65
2023/01/19 02:50:42;;;;;;;2.60;0.40;;;;;;;;;;5113221;28;20486;-65
2023/01/19 02:53:29;;;;;;;5.15;0.80;;;;;;;;;;5093682;28;20063;-65
2023/01/19 02:56:06;;;;;;;3.50;0.50;;;;;;;;;;5112422;28;20039;-65
2023/01/19 02:58:43;;;;;;;1.85;0.55;;;;;;;;;;5093799;28;20511;-65
2023/01/19 03:01:41;;;;;;;1.27;0.50;;;;;;;;;;5062490;28;20055;-65
2023/01/19 03:04:27;;;;;;;6.03;0.40;;;;;;;;;;5029542;28;20072;-65
2023/01/19 03:07:12;;;;;;;6.72;1.00;;;;;;;;;;5029446;28;20045;-65
2023/01/19 03:10:02;;;;;;;2.78;0.40;;;;;;;;;;4996472;28;20049;-65
2023/01/19 03:12:40;;;;;;;0.70;0.40;;;;;;;;;;5029495;28;20049;-65
2023/01/19 03:15:32;;;;;;;;;;;;;;;;;;5013765;28;20404;-65
2023/01/19 03:18:03;;;;;;;7.07;0.70;;;;;;;;;;5012546;28;19928;-65
2023/01/19 03:20:33;;;;;;;3.13;0.57;;;;;;;;;;5009156;28;20065;-65
2023/01/19 03:23:09;;;;;;;2.10;0.75;;;;;;;;;;4993238;28;20062;-65
2023/01/19 03:25:42;;;;;;;1.92;0.65;;;;;;;;;;5009469;28;20406;-65
2023/01/19 03:28:16;;;;;;;3.33;0.70;;;;;;;;;;4950697;29;20051;-65
2023/01/19 03:30:54;;;;;;;5.15;0.47;;;;;;;;;;4934573;29;20499;-65
2023/01/19 03:33:31;;;;;;;2.47;0.60;;;;;;;;;;4950915;29;20058;-65
2023/01/19 03:36:11;;;;;;;2.33;0.57;;;;;;;;;;4950672;29;20504;-64
2023/01/19 03:38:44;;;;;;;2.53;0.80;;;;;;;;;;4950595;28;20043;-65
2023/01/19 03:41:19;;;;;;;4.68;1.10;;;;;;;;;;4944773;28;20058;-65
2023/01/19 03:43:50;;;;;;;5.28;1.00;;;;;;;;;;4992701;28;20077;-65
2023/01/19 03:46:23;;;;;;;6.60;1.23;;;;;;;;;;5008573;28;20524;-65
2023/01/19 03:48:54;;;;;;;4.80;1.30;;;;;;;;;;5008954;28;20069;-65
2023/01/19 03:51:24;;;;;;;4.60;1.40;;;;;;;;;;5023507;28;20056;-65
2023/01/19 03:53:54;;;;;;;3.72;1.00;;;;;;;;;;5012112;28;20159;-65
2023/01/19 03:56:25;;;;;;;5.07;1.10;;;;;;;;;;4995431;28;20068;-65
2023/01/19 03:58:55;;;;;;;4.30;1.13;;;;;;;;;;4995422;28;20049;-65
2023/01/19 04:01:25;;;;;;;1.83;0.90;;;;;;;;;;5028560;28;20069;-65
2023/01/19 04:03:55;;;;;;;2.78;1.08;;;;;;;;;;5012068;28;20551;-65
2023/01/19 04:06:25;;;;;;;4.68;1.30;;;;;;;;;;5072557;28;20411;-64
2023/01/19 04:08:55;;;;;;;2.55;1.00;;;;;;;;;;5088625;28;20048;-65
2023/01/19 04:11:26;;;;;;;3.05;1.10;;;;;;;;;;5071884;28;20056;-65
2023/01/19 04:13:55;;;;;;;4.18;1.10;;;;;;;;;;5088335;28;20059;-65
2023/01/19 04:16:25;;;;;;;6.70;2.35;;;;;;;;;;5088434;28;20052;-64
2023/01/19 04:18:56;;;;;;;6.55;2.45;;;;;;;;;;5007158;28;20526;-65
2023/01/19 04:21:26;;;;;;;7.35;2.42;;;;;;;;;;5088614;28;20488;-65
2023/01/19 04:23:56;;;;;;;8.98;1.80;;;;;;;;;;5071289;28;20515;-65
2023/01/19 04:26:26;;;;;;;8.70;2.33;;;;;;;;;;5038343;28;20639;-65
2023/01/19 04:28:57;;;;;;;5.80;2.00;;;;;;;;;;5087905;28;20119;-64
2023/01/19 04:31:27;;;;;;;9.18;2.10;;;;;;;;;;5098624;28;20533;-65
2023/01/19 04:33:56;;;;;;;6.90;3.05;;;;;;;;;;5111302;28;20434;-65
2023/01/19 04:36:27;;;;;;;6.40;2.30;;;;;;;;;;5110980;28;20050;-65
2023/01/19 04:38:57;;;;;;;10.77;2.83;;;;;;;;;;5067689;28;20223;-65
2023/01/19 04:41:26;;;;;;;6.80;2.58;;;;;;;;;;5068059;28;20057;-65
2023/01/19 04:43:59;;;;;;;5.55;2.10;;;;;;;;;;5068136;28;20064;-65
2023/01/19 04:46:29;;;;;;;8.60;2.50;;;;;;;;;;5034176;28;20049;-65
2023/01/19 04:48:59;;;;;;;7.75;1.85;;;;;;;;;;5067778;28;20052;-64
2023/01/19 04:51:29;;;;;;;9.02;2.75;;;;;;;;;;5071776;28;20059;-65
2023/01/19 04:54:00;;;;;;;9.35;2.25;;;;;;;;;;5031564;28;20062;-65
2023/01/19 04:56:31;;;;;;;8.38;2.53;;;;;;;;;;4983053;28;20053;-65
2023/01/19 04:59:01;;;;;;;9.82;3.78;;;;;;;;;;4982538;28;20058;-65
2023/01/19 05:01:31;;;;;;;11.93;3.53;;;;;;;;;;5015158;28;20048;-65
2023/01/19 05:04:05;;;;;;;14.32;3.80;;;;;;;;;;5031629;28;20057;-65
2023/01/19 05:06:35;;;;;;;12.07;3.25;;;;;;;;;;5015095;28;20065;-64
2023/01/19 05:09:11;;;;;;;16.40;4.50;;;;;;;;;;4999285;28;20437;-64
2023/01/19 05:11:42;;;;;;;11.32;4.35;;;;;;;;;;5031759;28;20060;-65
2023/01/19 05:14:12;;;;;;;15.30;4.82;;;;;;;;;;5014553;28;20433;-64
2023/01/19 05:16:42;;;;;;;11.40;3.75;;;;;;;;;;5042467;28;20060;-65
2023/01/19 05:19:12;;;;;;;13.13;4.05;;;;;;;;;;5018160;28;20052;-65
2023/01/19 05:21:42;;;;;;;14.10;3.65;;;;;;;;;;5051246;28;20175;-66
2023/01/19 05:24:12;;;;;;;16.05;4.10;;;;;;;;;;5051270;28;20048;-65
2023/01/19 05:26:42;;;;;;;13.82;3.72;;;;;;;;;;5051058;28;20053;-66
2023/01/19 05:29:12;;;;;;;13.85;4.13;;;;;;;;;;5050971;28;20081;-65
2023/01/19 05:31:42;;;;;;;9.30;3.03;;;;;;;;;;5085328;28;20056;-66
2023/01/19 05:34:13;;;;;;;7.38;2.30;;;;;;;;;;5079124;28;20067;-65
2023/01/19 05:36:43;;;;;;;7.05;2.40;;;;;;;;;;5078118;28;20060;-65
2023/01/19 05:39:13;;;;;;;5.72;2.03;;;;;;;;;;5113871;28;20051;-65
2023/01/19 05:41:44;;;;;;;8.65;1.98;;;;;;;;;;5078981;28;20058;-65
2023/01/19 05:44:14;;;;;;;5.75;1.70;;;;;;;;;;5078006;28;20051;-66
2023/01/19 05:46:44;;;;;;;7.43;2.83;;;;;;;;;;5113848;28;20376;-65
2023/01/19 05:49:14;;;;;;;12.07;3.28;;;;;;;;;;5113826;28;20058;-65
2023/01/19 05:51:44;;;;;;;12.73;3.45;;;;;;;;;;5113888;28;20054;-65
2023/01/19 05:54:15;;;;;;;11.10;3.13;;;;;;;;;;5113637;28;20050;-66
2023/01/19 05:56:44;;;;;;;13.82;3.05;;;;;;;;;;5077609;28;20063;-65
2023/01/19 05:59:16;;;;;;;14.45;3.20;;;;;;;;;;5113521;28;20044;-65
2023/01/19 06:01:46;;;;;;;13.93;3.10;;;;;;;;;;5077607;28;20059;-66
2023/01/19 06:04:16;;;;;;;10.10;2.78;;;;;;;;;;5094509;28;20044;-65
2023/01/19 06:06:50;;;;;;;8.38;3.38;;;;;;;;;;5113884;28;20487;-64
2023/01/19 06:09:20;;;;;;;7.65;2.85;;;;;;;;;;5027397;28;20044;-64
2023/01/19 06:11:53;;;;;;;9.30;2.42;;;;;;;;;;5113527;28;20043;-63
2023/01/19 06:14:23;;;;;;;5.97;2.17;;;;;;;;;;5077042;28;20059;-65
2023/01/19 06:16:54;;;;;;;6.15;2.65;;;;;;;;;;5113484;28;20495;-65
2023/01/19 06:19:23;;;;;;;5.55;2.08;;;;;;;;;;5077182;28;20055;-65
2023/01/19 06:21:53;;;;;;;8.75;2.10;;;;;;;;;;5077264;28;20059;-65
2023/01/19 06:24:24;;;;;;;4.03;1.73;;;;;;;;;;5044219;28;20051;-64
2023/01/19 06:26:54;;;;;;;4.28;1.60;;;;;;;;;;5113238;28;20043;-65
2023/01/19 06:29:24;;;;;;;9.18;1.90;;;;;;;;;;5076712;28;20064;-65
2023/01/19 06:31:56;;;;;;;9.02;2.13;;;;;;;;;;5043472;28;20530;-64
2023/01/19 06:34:27;;;;;;;5.28;2.15;;;;;;;;;;5077038;28;20518;-65
2023/01/19 06:36:58;;;;;;;6.15;2.10;;;;;;;;;;5077707;28;20055;-65
2023/01/19 06:39:29;;;;;;;8.95;2.33;;;;;;;;;;5112655;28;20046;-65
2023/01/19 06:41:59;;;;;;;5.32;1.75;;;;;;;;;;5061671;28;20483;-64
2023/01/19 06:44:29;;;;;;;4.47;1.38;;;;;;;;;;5112918;28;20044;-65
2023/01/19 06:46:58;;;;;;;5.03;1.73;;;;;;;;;;5112803;28;20048;-65
2023/01/19 06:49:44;;;;;;;4.03;1.45;;;;;;;;;;5093374;28;20062;-65
2023/01/19 06:52:16;;;;;;;3.55;1.60;;;;;;;;;;5112930;28;20043;-65
2023/01/19 06:54:46;;;;;;;3.42;1.30;;;;;;;;;;5089576;28;20048;-66
2023/01/19 06:57:17;;;;;;;4.45;1.40;;;;;;;;;;5055993;28;20840;-66
2023/01/19 06:59:47;;;;;;;3.38;1.13;;;;;;;;;;5056287;28;20101;-65
2023/01/19 07:02:21;;;;;;;5.03;1.50;;;;;;;;;;5089654;28;20052;-65
2023/01/19 07:04:56;;;;;;;6.53;1.50;;;;;;;;;;5089396;28;20052;-65
2023/01/19 07:07:27;;;;;;;3.13;1.20;;;;;;;;;;5089683;28;20048;-65
2023/01/19 07:09:56;;;;;;;3.88;1.23;;;;;;;;;;5089257;28;20578;-65
2023/01/19 07:12:26;;;;;;;6.57;1.60;;;;;;;;;;5089213;28;20060;-65
2023/01/19 07:14:56;;;;;;;6.65;1.42;;;;;;;;;;5072504;28;20119;-65
2023/01/19 07:17:26;;;;;;;3.20;1.13;;;;;;;;;;5072221;28;20063;-65
2023/01/19 07:19:56;;;;;;;4.53;1.23;;;;;;;;;;5072143;28;20048;-65
2023/01/19 07:22:26;;;;;;;2.42;1.42;;;;;;;;;;5072362;28;20060;-65
2023/01/19 07:24:57;;;;;;;4.30;1.35;;;;;;;;;;5091414;28;20044;-65
2023/01/19 07:27:27;;;;;;;3.28;1.23;;;;;;;;;;5076670;28;20058;-65
2023/01/19 07:29:59;;;;;;;2.83;1.30;;;;;;;;;;5076332;28;20059;-65
2023/01/19 07:32:30;;;;;;;3.33;1.20;;;;;;;;;;5112065;28;20050;-65
2023/01/19 07:34:59;;;;;;;2.30;1.00;;;;;;;;;;5111966;28;20054;-65
2023/01/19 07:37:29;;;;;;;2.88;1.23;;;;;;;;;;5111889;28;20055;-65
2023/01/19 07:40:00;;;;;;;2.78;1.33;;;;;;;;;;5111885;28;20044;-65
2023/01/19 07:42:30;;;;;;;3.95;1.27;;;;;;;;;;5068385;28;20044;-65
2023/01/19 07:44:59;;;;;;;4.07;1.30;;;;;;;;;;5068890;28;20063;-65
2023/01/19 07:47:29;;;;;;;7.25;1.33;;;;;;;;;;5068436;28;20060;-65
2023/01/19 07:49:59;;;;;;;3.60;1.48;;;;;;;;;;5032111;28;20563;-65
2023/01/19 07:52:29;;;;;;;3.10;1.75;;;;;;;;;;4995228;28;20049;-65
2023/01/19 07:54:59;;;;;;;2.47;1.25;;;;;;;;;;5028782;28;20057;-65
2023/01/19 07:57:30;;;;;;;5.00;1.55;;;;;;;;;;5028301;28;20057;-65
2023/01/19 08:00:00;;;;;;;4.13;1.38;;;;;;;;;;5028590;28;20501;-65
2023/01/19 08:02:40;;;;;;;4.05;1.80;;;;;;;;;;5028507;28;20091;-65
2023/01/19 08:05:10;;;;;;;3.55;1.30;;;;;;;;;;4992928;28;20058;-65
2023/01/19 08:07:41;;;;;;;4.65;1.73;;;;;;;;;;4959989;28;20054;-65
2023/01/19 08:10:13;;;;;;;4.25;1.23;;;;;;;;;;5008679;28;20065;-65
2023/01/19 08:12:43;;;;;;;5.25;1.20;;;;;;;;;;5008699;28;20053;-65
2023/01/19 08:15:13;;;;;;;2.95;1.20;;;;;;;;;;5008909;28;20053;-65
2023/01/19 08:17:43;;;;;;;5.38;1.33;;;;;;;;;;4959757;28;20084;-65
2023/01/19 08:20:13;;;;;;;3.33;1.27;;;;;;;;;;4995751;28;20076;-65
2023/01/19 08:22:46;;;;;;;5.43;1.90;;;;;;;;;;5028199;28;20080;-65
2023/01/19 08:25:16;;;;;;;4.72;1.63;;;;;;;;;;5030585;28;20042;-65
2023/01/19 08:27:46;;;;;;;3.08;1.33;;;;;;;;;;4999822;28;20053;-65
2023/01/19 08:30:17;;;;;;;2.67;1.30;;;;;;;;;;5013578;28;20259;-65
2023/01/19 08:32:47;;;;;;;3.83;1.50;;;;;;;;;;5055353;28;20107;-65
2023/01/19 08:35:17;;;;;;;7.53;1.40;;;;;;;;;;5072087;28;20055;-65
2023/01/19 08:37:47;;;;;;;9.07;1.60;;;;;;;;;;5072083;28;20056;-65
2023/01/19 08:40:17;;;;;;;3.33;1.35;;;;;;;;;;5038338;28;20052;-65
2023/01/19 08:42:47;;;;;;;10.35;2.05;;;;;;;;;;5068726;28;20063;-64
2023/01/19 08:45:17;;;;;;;3.85;1.20;;;;;;;;;;5115325;28;20047;-64
2023/01/19 08:47:47;;;;;;;7.43;1.73;;;;;;;;;;5062403;28;20059;-65
2023/01/19 08:50:17;;;;;;;4.22;1.35;;;;;;;;;;5045388;28;20062;-64
2023/01/19 08:52:47;;;;;;;2.97;1.15;;;;;;;;;;5114608;28;20036;-65
2023/01/19 08:55:17;;;;;;;2.83;1.30;;;;;;;;;;5095928;28;20569;-65
2023/01/19 08:57:53;;;;;;;6.97;1.80;;;;;;;;;;5096009;28;20492;-65
2023/01/19 09:00:24;;;;;;;3.05;1.50;;;;;;;;;;5114871;28;20040;-64
2023/01/19 09:02:55;;;;;;;3.88;1.77;;;;;;;;;;5114549;28;20059;-65
2023/01/19 09:05:25;;;;;;;4.60;1.67;;;;;;;;;;5078844;28;20070;-64
2023/01/19 09:07:55;;;;;;;4.55;1.30;;;;;;;;;;5114786;28;20040;-63
2023/01/19 09:10:30;;;;;;;3.83;1.45;;;;;;;;;;5114945;28;20036;-65
2023/01/19 09:13:03;;;;;;;3.45;1.60;;;;;;;;;;5061895;28;20062;-64
2023/01/19 09:15:36;;;;;;;4.53;2.05;;;;;;;;;;5114711;28;20075;-64
2023/01/19 09:18:12;;;;;;;6.03;1.30;;;;;;;;;;5061837;28;20051;-64
2023/01/19 09:20:44;;;;;;;2.45;1.20;;;;;;;;;;5095283;28;20047;-64
2023/01/19 09:23:17;;;;;;;3.25;1.77;;;;;;;;;;5061322;28;20055;-64
2023/01/19 09:25:47;;;;;;;4.90;1.50;;;;;;;;;;5114415;28;20395;-65
2023/01/19 09:28:18;;;;;;;2.95;1.45;;;;;;;;;;5061541;28;20048;-65
2023/01/19 09:30:49;;;;;;;2.80;1.33;;;;;;;;;;5114292;28;20052;-64
2023/01/19 09:33:20;;;;;;;3.17;1.30;;;;;;;;;;5114040;28;20043;-65
2023/01/19 09:35:50;;;;;;;3.22;1.02;;;;;;;;;;5113954;28;20044;-64
2023/01/19 09:38:22;;;;;;;1.88;1.02;;;;;;;;;;5062010;28;20066;-64
2023/01/19 09:40:56;;;;;;;2.47;1.05;;;;;;;;;;5113806;28;20040;-64
2023/01/19 09:43:46;;;;;;;4.00;1.20;;;;;;;;;;5114116;28;20475;-64
2023/01/19 09:46:41;;;;;;;2.35;1.35;;;;;;;;;;5114241;28;20389;-64
2023/01/19 09:49:15;;;;;;;1.90;0.90;;;;;;;;;;5034097;28;20527;-64
2023/01/19 09:51:49;;;;;;;1.65;0.98;;;;;;;;;;5034210;28;20527;-66
2023/01/19 09:54:32;;;;;;;3.03;0.90;;;;;;;;;;4985736;28;20053;-65
2023/01/19 09:57:05;;;;;;;2.45;0.80;;;;;;;;;;5050812;28;20049;-66
2023/01/19 09:59:37;;;;;;;1.85;1.05;;;;;;;;;;5017437;28;20056;-73
2023/01/19 10:02:31;;;;;;;3.22;1.02;;;;;;;;;;5017534;28;20057;-65
2023/01/19 10:05:02;;;;;;;2.63;1.10;;;;;;;;;;5000665;28;20060;-66
2023/01/19 10:08:02;;;;;;;11.07;1.73;;;;;;;;;;5013496;28;20057;-66
2023/01/19 10:10:32;;;;;;;7.20;1.60;;;;;;;;;;5030259;28;20489;-66
2023/01/19 10:13:21;;;;;;;4.15;1.35;;;;;;;;;;5030451;28;20058;-66
2023/01/19 10:16:00;;;;;;;3.35;1.58;;;;;;;;;;4997807;28;20050;-66
2023/01/19 10:18:46;;;;;;;3.15;1.50;;;;;;;;;;4997571;28;20058;-66
2023/01/19 10:21:23;;;;;;;7.38;1.52;;;;;;;;;;5051222;28;20063;-66
2023/01/19 10:24:05;;;;;;;3.85;1.27;;;;;;;;;;5056830;28;20055;-66
2023/01/19 10:27:01;;;;;;;3.67;1.42;;;;;;;;;;5090184;28;20063;-67
2023/01/19 10:29:38;;;;;;;3.15;1.50;;;;;;;;;;5029827;28;20517;-66
2023/01/19 10:32:10;;;;;;;2.58;1.50;;;;;;;;;;5029990;28;20399;-67
2023/01/19 10:34:40;;;;;;;3.30;1.48;;;;;;;;;;5029990;28;20110;-66
2023/01/19 10:37:29;;;;;;;3.15;0.82;;;;;;;;;;4982048;28;20068;-66
2023/01/19 10:40:18;;;;;;;3.05;0.90;;;;;;;;;;4997038;28;20426;-65
2023/01/19 10:42:49;;;;;;;1.48;0.63;;;;;;;;;;5029721;28;20050;-65
2023/01/19 10:45:22;;;;;;;2.92;0.60;;;;;;;;;;5040726;28;20100;-65
2023/01/19 10:47:54;;;;;;;3.45;0.63;;;;;;;;;;5032219;28;20640;-65
2023/01/19 10:50:33;;;;;;;1.27;0.82;;;;;;;;;;5049611;28;20529;-65
2023/01/19 10:53:05;;;;;;;1.38;0.52;;;;;;;;;;5049432;28;20068;-65
2023/01/19 10:55:37;;;;;;;3.72;0.60;;;;;;;;;;5016295;28;20044;-65
2023/01/19 10:58:28;;;;;;;1.40;0.50;;;;;;;;;;5049500;28;20457;-64
2023/01/19 11:01:17;;;;;;;2.63;0.73;;;;;;;;;;5049600;28;20057;-65
2023/01/19 11:03:48;;;;;;;1.58;0.45;;;;;;;;;;5049271;28;20060;-64
2023/01/19 11:06:27;;;;;;;2.90;0.70;;;;;;;;;;5077231;28;20066;-65
2023/01/19 11:09:11;;;;;;;;;;;;;;;;;;5112980;28;20063;-65
2023/01/19 11:11:41;;;;;;;;;;;;;;;;;;5113039;28;19920;-65
2023/01/19 11:14:16;;;;;;;1.60;0.50;;;;;;;;;;5111998;28;19920;-65
2023/01/19 11:16:57;;;;;;;0.77;0.40;;;;;;;;;;5112427;28;20048;-65
2023/01/19 11:19:30;;;;;;;0.85;0.43;;;;;;;;;;5112277;28;20043;-65
2023/01/19 11:22:26;;;;;;;1.23;0.70;;;;;;;;;;5043546;28;20052;-65
2023/01/19 11:25:03;;;;;;;1.88;0.40;;;;;;;;;;5060679;28;20483;-65
2023/01/19 11:27:36;;;;;;;1.33;0.40;;;;;;;;;;5112047;28;20032;-65
2023/01/19 11:30:21;;;;;;;2.78;0.77;;;;;;;;;;5051879;28;20523;-65
2023/01/19 11:32:53;;;;;;;1.52;0.50;;;;;;;;;;5068684;28;20071;-66
2023/01/19 11:35:40;;;;;;;1.02;0.47;;;;;;;;;;5048750;28;20448;-66
2023/01/19 11:38:13;;;;;;;0.65;0.40;;;;;;;;;;5015724;28;20095;-66
2023/01/19 11:40:51;;;;;;;1.00;0.35;;;;;;;;;;5015154;28;20505;-66
2023/01/19 11:43:24;;;;;;;3.92;0.50;;;;;;;;;;4972986;28;20059;-66
2023/01/19 11:45:59;;;;;;;3.05;0.65;;;;;;;;;;4989438;28;20055;-67
2023/01/19 11:48:36;;;;;;;2.75;0.60;;;;;;;;;;4989408;28;20061;-67
2023/01/19 11:51:13;;;;;;;1.92;0.57;;;;;;;;;;4988957;28;20050;-66
2023/01/19 11:53:48;;;;;;;2.28;0.50;;;;;;;;;;4987333;28;20049;-66
2023/01/19 11:56:23;;;;;;;2.30;0.50;;;;;;;;;;4969099;28;21587;-66
2023/01/19 11:58:53;;;;;;;2.00;0.60;;;;;;;;;;4969419;28;20073;-66
2023/01/19 12:01:36;;;;;;;0.70;0.30;;;;;;;;;;4969545;28;20077;-67
2023/01/19 12:04:17;;;;;;;1.92;0.43;;;;;;;;;;4970077;28;20047;-67
2023/01/19 12:06:52;;;;;;;2.17;0.50;;;;;;;;;;4969603;28;20078;-66
2023/01/19 12:09:51;;;;;;;1.13;0.50;;;;;;;;;;4969819;28;20059;-67
2023/01/19 12:12:28;;;;;;;2.13;0.50;;;;;;;;;;4939518;28;20051;-67
2023/01/19 12:15:17;;;;;;;0.80;0.50;;;;;;;;;;4969541;28;20067;-68
2023/01/19 12:17:50;;;;;;;1.40;0.45;;;;;;;;;;4969807;28;20158;-66
2023/01/19 12:20:43;;;;;;;4.55;0.60;;;;;;;;;;4922647;28;20057;-65
2023/01/19 12:23:52;;;;;;;0.77;0.45;;;;;;;;;;4969341;28;20055;-67
2023/01/19 12:26:50;;;;;;;0.82;0.50;;;;;;;;;;4927601;29;20056;-66
2023/01/19 12:29:24;;;;;;;1.02;0.80;;;;;;;;;;4850996;29;20065;-66
2023/01/19 12:32:20;;;;;;;0.82;0.45;;;;;;;;;;4871134;29;20065;-67
2023/01/19 12:34:51;;;;;;;1.67;0.60;;;;;;;;;;4890507;29;20061;-66
2023/01/19 12:37:42;;;;;;;1.67;0.90;;;;;;;;;;4893193;29;20425;-66
2023/01/19 12:40:27;;;;;;;1.45;0.63;;;;;;;;;;4893094;29;20064;-67
2023/01/19 12:43:05;;;;;;;1.75;0.80;;;;;;;;;;4893234;29;20056;-67
2023/01/19 12:45:38;;;;;;;1.42;0.60;;;;;;;;;;4846771;29;20056;-66
2023/01/19 12:48:24;;;;;;;0.98;0.60;;;;;;;;;;4893102;29;20060;-66
2023/01/19 12:50:54;;;;;;;1.67;0.90;;;;;;;;;;4912199;29;20056;-67
2023/01/19 12:53:25;;;;;;;1.02;0.50;;;;;;;;;;4911616;29;20170;-66
2023/01/19 12:56:01;;;;;;;1.27;0.73;;;;;;;;;;4911823;29;20087;-66
2023/01/19 12:58:33;;;;;;;5.57;2.78;;;;;;;;;;4949844;29;20055;-70
2023/01/19 13:01:20;;;;;;;0.95;0.52;;;;;;;;;;4918360;29;20051;-66
2023/01/19 13:04:08;;;;;;;0.75;0.50;;;;;;;;;;4960404;28;20542;-66
2023/01/19 13:06:47;;;;;;;1.58;0.70;;;;;;;;;;5009664;28;20048;-67
2023/01/19 13:09:34;;;;;;;3.95;0.95;;;;;;;;;;5087727;28;20194;-67
2023/01/19 13:12:14;;;;;;;1.70;0.80;;;;;;;;;;5073763;28;20455;-66
2023/01/19 13:14:44;;;;;;;1.48;0.70;;;;;;;;;;5091555;28;20052;-66
2023/01/19 13:17:22;;;;;;;1.55;0.65;;;;;;;;;;5041403;28;20048;-69
2023/01/19 13:20:18;;;;;;;1.00;0.50;;;;;;;;;;5091814;28;20048;-66
2023/01/19 13:22:51;;;;;;;3.83;0.90;;;;;;;;;;5007670;28;20406;-66
2023/01/19 13:25:34;;;;;;;2.65;0.70;;;;;;;;;;4959389;28;20057;-66
2023/01/19 13:28:08;;;;;;;2.03;0.90;;;;;;;;;;4991768;28;20065;-66
2023/01/19 13:30:51;;;;;;;2.20;0.70;;;;;;;;;;4991740;28;20063;-68
2023/01/19 13:33:24;;;;;;;3.67;1.98;;;;;;;;;;4991789;28;20506;-67
2023/01/19 13:35:57;;;;;;;2.22;0.60;;;;;;;;;;4999771;28;20073;-66
2023/01/19 13:38:31;;;;;;;1.33;0.90;;;;;;;;;;5011646;28;20164;-67
2023/01/19 13:41:02;;;;;;;0.88;0.63;;;;;;;;;;5010938;28;20057;-67
2023/01/19 13:43:37;;;;;;;10.85;7.30;;;;;;;;;;5011207;28;20088;-66
2023/01/19 13:46:13;;;;;;;4.40;2.13;;;;;;;;;;5010938;28;20065;-68
2023/01/19 13:48:55;;;;;;;1.92;0.80;;;;;;;;;;5011116;28;20089;-67
2023/01/19 13:51:25;;;;;;;6.35;1.50;;;;;;;;;;5010963;28;20561;-67
2023/01/19 13:53:58;;;;;;;4.60;2.60;;;;;;;;;;5011151;28;20054;-69
2023/01/19 13:56:29;;;;;;;2.25;1.48;;;;;;;;;;4945939;28;20648;-71
2023/01/19 13:59:12;;;;;;;2.03;1.30;;;;;;;;;;5014664;28;20050;-69
2023/01/19 14:01:44;;;;;;;8.00;4.25;;;;;;;;;;5090782;28;20044;-67
2023/01/19 14:04:30;;;;;;;1.88;0.90;;;;;;;;;;5093656;28;20055;-72
2023/01/19 14:07:12;;;;;;;2.53;1.10;;;;;;;;;;5113594;28;20040;-68
2023/01/19 14:09:42;;;;;;;1.63;0.70;;;;;;;;;;5050485;28;20065;-67
2023/01/19 14:12:17;;;;;;;1.88;1.23;;;;;;;;;;5033488;28;20056;-73
2023/01/19 14:14:48;;;;;;;3.38;1.60;;;;;;;;;;5017535;28;20762;-69
2023/01/19 14:17:24;;;;;;;3.38;2.15;;;;;;;;;;5050403;28;20060;-69
2023/01/19 14:19:59;;;;;;;3.10;0.95;;;;;;;;;;5049942;28;20048;-68
2023/01/19 14:22:44;;;;;;;1.65;0.60;;;;;;;;;;5048940;28;20060;-68
2023/01/19 14:25:35;;;;;;;2.30;0.80;;;;;;;;;;5050241;28;20061;-68
2023/01/19 14:28:27;;;;;;;1.15;0.65;;;;;;;;;;4986129;28;21155;-69
2023/01/19 14:31:03;;;;;;;1.48;0.60;;;;;;;;;;5000622;28;20056;-70
2023/01/19 14:33:41;;;;;;;0.90;0.68;;;;;;;;;;5050465;28;20049;-69
2023/01/19 14:36:14;;;;;;;0.88;0.70;;;;;;;;;;5009947;28;20046;-69
2023/01/19 14:38:48;;;;;;;0.90;0.50;;;;;;;;;;5010505;28;20407;-67
2023/01/19 14:41:36;;;;;;;0.77;0.65;;;;;;;;;;5038885;28;20071;-69
2023/01/19 14:44:10;;;;;;;2.35;0.70;;;;;;;;;;5069994;28;20048;-73
2023/01/19 14:46:46;;;;;;;1.45;0.60;;;;;;;;;;5069817;28;20053;-67
2023/01/19 14:49:33;;;;;;;1.10;0.50;;;;;;;;;;5036483;28;20071;-68
2023/01/19 14:52:07;;;;;;;1.42;0.63;;;;;;;;;;5069837;28;20051;-67
2023/01/19 14:54:44;;;;;;;0.95;0.70;;;;;;;;;;5069568;28;20060;-66
2023/01/19 14:57:15;;;;;;;2.97;0.80;;;;;;;;;;5069582;28;20083;-65
2023/01/19 14:59:48;;;;;;;1.48;0.93;;;;;;;;;;5019604;28;20060;-67
2023/01/19 15:02:19;;;;;;;1.75;0.75;;;;;;;;;;5069429;28;20044;-67
2023/01/19 15:04:53;;;;;;;1.33;0.75;;;;;;;;;;5012458;28;20146;-66
2023/01/19 15:07:24;;;;;;;2.55;0.73;;;;;;;;;;4997319;28;20417;-68
2023/01/19 15:09:55;;;;;;;2.42;0.60;;;;;;;;;;5029316;28;20064;-66
2023/01/19 15:12:28;;;;;;;1.00;0.68;;;;;;;;;;5029555;28;20053;-68
2023/01/19 15:14:58;;;;;;;1.63;0.60;;;;;;;;;;5068082;28;20052;-67
2023/01/19 15:17:28;;;;;;;1.52;0.80;;;;;;;;;;5069160;28;20051;-67
2023/01/19 15:19:58;;;;;;;2.75;0.80;;;;;;;;;;5018734;28;20056;-67
2023/01/19 15:22:28;;;;;;;2.83;0.70;;;;;;;;;;5019269;28;20484;-69
2023/01/19 15:25:01;;;;;;;1.42;0.90;;;;;;;;;;5036319;28;20064;-72
2023/01/19 15:27:33;;;;;;;1.35;0.65;;;;;;;;;;5068965;28;20056;-67
2023/01/19 15:30:11;;;;;;;1.85;0.70;;;;;;;;;;5068558;28;20052;-67
2023/01/19 15:32:42;;;;;;;1.40;0.77;;;;;;;;;;5020111;28;20060;-67
2023/01/19 15:35:18;;;;;;;1.55;0.93;;;;;;;;;;5019032;28;20642;-66
2023/01/19 15:37:50;;;;;;;1.20;0.70;;;;;;;;;;5069018;28;20542;-67